sensor_id;sensor_type;location;lat;lon;timestamp;pressure;altitude;pressure_sealevel;temperature;humidity
32109;BME280;18624;50.042;8.436;2023-01-28T00:01:07;101348.28;;;2.56;100.00
32109;BME280;18624;50.042;8.436;2023-01-28T00:03:34;101338.75;;;2.46;100.00
32109;BME280;18624;50.042;8.436;2023-01-28T00:06:02;101357.72;;;2.46;100.00
32109;BME280;18624;50.042;8.436;2023-01-28T00:08:28;101345.91;;;2.38;100.00
32109;BME280;18624;50.042;8.436;2023-01-28T00:10:58;101357.28;;;2.44;100.00
32109;BME280;18624;50.042;8.436;2023-01-28T00:13:25;101351.78;;;2.40;100.00
32109;BME280;18624;50.042;8.436;2023-01-28T00:15:56;101351.78;;;2.40;100.00
32109;BME280;18624;50.042;8.436;2023-01-28T00:18:22;101361.47;;;2.41;100.00
32109;BME280;18624;50.042;8.436;2023-01-28T00:21:05;101349.94;;;2.28;100.00
32109;BME280;18624;50.042;8.436;2023-01-28T00:23:36;101352.63;;;2.28;100.00
32109;BME280;18624;50.042;8.436;2023-01-28T00:26:06;101350.03;;;2.32;100.00
32109;BME280;18624;50.042;8.436;2023-01-28T00:28:33;101347.84;;;2.38;100.00
32109;BME280;18624;50.042;8.436;2023-01-28T00:31:13;101294.34;;;1.99;100.00
32109;BME280;18624;50.042;8.436;2023-01-28T00:33:43;101341.09;;;2.16;100.00
32109;BME280;18624;50.042;8.436;2023-01-28T00:36:10;101356.06;;;2.25;100.00
32109;BME280;18624;50.042;8.436;2023-01-28T00:38:37;101360.91;;;2.20;100.00
32109;BME280;18624;50.042;8.436;2023-01-28T00:41:12;101368.50;;;2.14;100.00
32109;BME280;18624;50.042;8.436;2023-01-28T00:43:40;101364.75;;;2.19;100.00
32109;BME280;18624;50.042;8.436;2023-01-28T00:46:09;101360.22;;;2.23;100.00
32109;BME280;18624;50.042;8.436;2023-01-28T00:48:37;101361.53;;;2.13;100.00
32109;BME280;18624;50.042;8.436;2023-01-28T00:51:04;101367.19;;;2.08;100.00
32109;BME280;18624;50.042;8.436;2023-01-28T00:53:31;101355.81;;;2.02;100.00
32109;BME280;18624;50.042;8.436;2023-01-28T00:55:58;101360.38;;;2.14;100.00
32109;BME280;18624;50.042;8.436;2023-01-28T00:58:25;101358.97;;;2.05;100.00
32109;BME280;18624;50.042;8.436;2023-01-28T01:00:52;101358.97;;;2.05;100.00
32109;BME280;18624;50.042;8.436;2023-01-28T01:03:18;101355.25;;;2.09;100.00
32109;BME280;18624;50.042;8.436;2023-01-28T01:05:45;101357.31;;;2.16;100.00
32109;BME280;18624;50.042;8.436;2023-01-28T01:08:12;101364.75;;;2.19;100.00
32109;BME280;18624;50.042;8.436;2023-01-28T01:10:39;101365.38;;;2.28;100.00
32109;BME280;18624;50.042;8.436;2023-01-28T01:13:06;101367.03;;;2.33;100.00
32109;BME280;18624;50.042;8.436;2023-01-28T01:15:33;101361.63;;;2.33;100.00
32109;BME280;18624;50.042;8.436;2023-01-28T01:18:01;101357.16;;;2.24;100.00
32109;BME280;18624;50.042;8.436;2023-01-28T01:20:28;101366.41;;;2.23;100.00
32109;BME280;18624;50.042;8.436;2023-01-28T01:22:58;101368.34;;;2.23;100.00
32109;BME280;18624;50.042;8.436;2023-01-28T01:25:25;101324.19;;;2.03;100.00
32109;BME280;18624;50.042;8.436;2023-01-28T01:27:51;101363.97;;;2.34;100.00
32109;BME280;18624;50.042;8.436;2023-01-28T01:30:18;101368.69;;;2.37;100.00
32109;BME280;18624;50.042;8.436;2023-01-28T01:32:46;101376.13;;;2.40;100.00
32109;BME280;18624;50.042;8.436;2023-01-28T01:35:12;101373.59;;;2.32;100.00
32109;BME280;18624;50.042;8.436;2023-01-28T01:37:42;101381.44;;;2.37;100.00
32109;BME280;18624;50.042;8.436;2023-01-28T01:40:11;101371.66;;;2.32;100.00
32109;BME280;18624;50.042;8.436;2023-01-28T01:42:37;101388.97;;;2.43;100.00
32109;BME280;18624;50.042;8.436;2023-01-28T01:45:06;101394.03;;;2.45;100.00
32109;BME280;18624;50.042;8.436;2023-01-28T01:50:22;101390.97;;;2.46;100.00
32109;BME280;18624;50.042;8.436;2023-01-28T01:52:53;101384.69;;;2.42;100.00
32109;BME280;18624;50.042;8.436;2023-01-28T01:55:23;101384.69;;;2.42;100.00
32109;BME280;18624;50.042;8.436;2023-01-28T01:57:54;101400.66;;;2.47;100.00
32109;BME280;18624;50.042;8.436;2023-01-28T02:00:22;101395.59;;;2.46;100.00
32109;BME280;18624;50.042;8.436;2023-01-28T02:02:50;101405.63;;;2.45;100.00
32109;BME280;18624;50.042;8.436;2023-01-28T02:05:19;101323.78;;;1.89;100.00
32109;BME280;18624;50.042;8.436;2023-01-28T02:07:49;101391.50;;;2.36;100.00
32109;BME280;18624;50.042;8.436;2023-01-28T02:10:17;101397.94;;;2.32;100.00
32109;BME280;18624;50.042;8.436;2023-01-28T02:12:52;101399.88;;;2.31;100.00
32109;BME280;18624;50.042;8.436;2023-01-28T02:15:24;101403.88;;;2.37;100.00
32109;BME280;18624;50.042;8.436;2023-01-28T02:17:52;101348.25;;;2.08;100.00
32109;BME280;18624;50.042;8.436;2023-01-28T02:20:22;101400.13;;;2.42;100.00
32109;BME280;18624;50.042;8.436;2023-01-28T02:25:40;101392.06;;;2.29;100.00
32109;BME280;18624;50.042;8.436;2023-01-28T02:30:59;101411.22;;;2.37;100.00
32109;BME280;18624;50.042;8.436;2023-01-28T02:33:40;101399.75;;;2.27;100.00
32109;BME280;18624;50.042;8.436;2023-01-28T02:36:17;101408.25;;;2.26;100.00
32109;BME280;18624;50.042;8.436;2023-01-28T02:38:49;101395.28;;;2.19;100.00
32109;BME280;18624;50.042;8.436;2023-01-28T02:41:29;101401.06;;;2.18;100.00
32109;BME280;18624;50.042;8.436;2023-01-28T02:44:01;101405.34;;;2.19;100.00
32109;BME280;18624;50.042;8.436;2023-01-28T02:49:36;101406.22;;;2.23;100.00
32109;BME280;18624;50.042;8.436;2023-01-28T02:58:36;101408.50;;;2.21;100.00
32109;BME280;18624;50.042;8.436;2023-01-28T03:01:25;101414.75;;;2.25;100.00
32109;BME280;18624;50.042;8.436;2023-01-28T03:06:43;101411.19;;;2.21;100.00
32109;BME280;18624;50.042;8.436;2023-01-28T03:09:12;101412.88;;;2.25;100.00
32109;BME280;18624;50.042;8.436;2023-01-28T03:11:55;101413.66;;;2.26;100.00
32109;BME280;18624;50.042;8.436;2023-01-28T03:14:44;101418.69;;;2.27;100.00
32109;BME280;18624;50.042;8.436;2023-01-28T03:17:37;101424.78;;;2.24;100.00
32109;BME280;18624;50.042;8.436;2023-01-28T03:20:28;101339.34;;;1.64;100.00
32109;BME280;18624;50.042;8.436;2023-01-28T03:23:21;101430.81;;;2.18;100.00
32109;BME280;18624;50.042;8.436;2023-01-28T03:26:07;101435.63;;;2.24;100.00
32109;BME280;18624;50.042;8.436;2023-01-28T03:28:58;101438.69;;;2.23;100.00
32109;BME280;18624;50.042;8.436;2023-01-28T03:31:49;101435.34;;;2.29;100.00
32109;BME280;18624;50.042;8.436;2023-01-28T03:34:34;101443.25;;;2.35;100.00
32109;BME280;18624;50.042;8.436;2023-01-28T03:37:20;101440.00;;;2.29;100.00
32109;BME280;18624;50.042;8.436;2023-01-28T03:40:06;101446.13;;;2.26;100.00
32109;BME280;18624;50.042;8.436;2023-01-28T03:42:33;101384.09;;;1.89;100.00
32109;BME280;18624;50.042;8.436;2023-01-28T03:45:11;101440.44;;;2.31;100.00
32109;BME280;18624;50.042;8.436;2023-01-28T03:47:39;101437.63;;;2.27;100.00
32109;BME280;18624;50.042;8.436;2023-01-28T03:50:09;101447.31;;;2.28;100.00
32109;BME280;18624;50.042;8.436;2023-01-28T03:52:45;101447.53;;;2.36;100.00
32109;BME280;18624;50.042;8.436;2023-01-28T03:55:22;101446.03;;;2.38;100.00
32109;BME280;18624;50.042;8.436;2023-01-28T03:57:50;101451.13;;;2.40;100.00
32109;BME280;18624;50.042;8.436;2023-01-28T04:00:18;101456.63;;;2.43;100.00
32109;BME280;18624;50.042;8.436;2023-01-28T04:02:45;101458.63;;;2.46;100.00
32109;BME280;18624;50.042;8.436;2023-01-28T04:05:17;101442.28;;;2.43;100.00
32109;BME280;18624;50.042;8.436;2023-01-28T04:07:49;101450.97;;;2.48;100.00
32109;BME280;18624;50.042;8.436;2023-01-28T04:10:25;101424.31;;;2.35;100.00
32109;BME280;18624;50.042;8.436;2023-01-28T04:13:02;101448.69;;;2.50;100.00
32109;BME280;18624;50.042;8.436;2023-01-28T04:15:29;101434.00;;;2.36;100.00
32109;BME280;18624;50.042;8.436;2023-01-28T04:17:56;101452.56;;;2.37;100.00
32109;BME280;18624;50.042;8.436;2023-01-28T04:20:26;101451.16;;;2.27;100.00
32109;BME280;18624;50.042;8.436;2023-01-28T04:22:56;101455.78;;;2.27;100.00
32109;BME280;18624;50.042;8.436;2023-01-28T04:25:22;101454.13;;;2.22;100.00
32109;BME280;18624;50.042;8.436;2023-01-28T04:27:49;101456.38;;;2.20;100.00
32109;BME280;18624;50.042;8.436;2023-01-28T04:30:21;101384.91;;;1.77;100.00
32109;BME280;18624;50.042;8.436;2023-01-28T04:33:01;101454.13;;;2.22;100.00
32109;BME280;18624;50.042;8.436;2023-01-28T04:35:50;101462.09;;;2.31;100.00
32109;BME280;18624;50.042;8.436;2023-01-28T04:38:35;101337.13;;;1.54;100.00
32109;BME280;18624;50.042;8.436;2023-01-28T04:41:24;101457.72;;;2.42;100.00
32109;BME280;18624;50.042;8.436;2023-01-28T04:43:51;101455.75;;;2.39;100.00
32109;BME280;18624;50.042;8.436;2023-01-28T04:46:36;101350.78;;;1.73;100.00
32109;BME280;18624;50.042;8.436;2023-01-28T04:49:11;101458.19;;;2.44;100.00
32109;BME280;18624;50.042;8.436;2023-01-28T04:51:49;101460.44;;;2.42;100.00
32109;BME280;18624;50.042;8.436;2023-01-28T04:54:30;101453.56;;;2.45;100.00
32109;BME280;18624;50.042;8.436;2023-01-28T04:57:00;101462.25;;;2.38;100.00
32109;BME280;18624;50.042;8.436;2023-01-28T04:59:26;101458.09;;;2.41;100.00
32109;BME280;18624;50.042;8.436;2023-01-28T05:01:52;101365.72;;;1.83;100.00
32109;BME280;18624;50.042;8.436;2023-01-28T05:04:20;101454.75;;;2.32;100.00
32109;BME280;18624;50.042;8.436;2023-01-28T05:06:46;101419.25;;;2.05;100.00
32109;BME280;18624;50.042;8.436;2023-01-28T05:09:17;101449.25;;;2.28;100.00
32109;BME280;18624;50.042;8.436;2023-01-28T05:11:44;101383.88;;;1.82;100.00
32109;BME280;18624;50.042;8.436;2023-01-28T05:14:12;101421.84;;;2.01;100.00
32109;BME280;18624;50.042;8.436;2023-01-28T05:16:55;101446.59;;;2.16;100.00
32109;BME280;18624;50.042;8.436;2023-01-28T05:19:22;101412.69;;;1.90;100.00
32109;BME280;18624;50.042;8.436;2023-01-28T05:21:49;101360.63;;;1.65;100.00
32109;BME280;18624;50.042;8.436;2023-01-28T05:24:24;101482.25;;;2.34;100.00
32109;BME280;18624;50.042;8.436;2023-01-28T05:26:52;101428.38;;;2.13;100.00
32109;BME280;18624;50.042;8.436;2023-01-28T05:29:18;101343.25;;;1.38;100.00
32109;BME280;18624;50.042;8.436;2023-01-28T05:31:46;101432.69;;;2.01;100.00
32109;BME280;18624;50.042;8.436;2023-01-28T05:34:14;101460.59;;;2.06;100.00
32109;BME280;18624;50.042;8.436;2023-01-28T05:36:42;101458.28;;;1.92;100.00
32109;BME280;18624;50.042;8.436;2023-01-28T05:39:38;101408.00;;;1.75;100.00
32109;BME280;18624;50.042;8.436;2023-01-28T05:42:05;101481.53;;;2.21;100.00
32109;BME280;18624;50.042;8.436;2023-01-28T05:44:34;101472.59;;;2.20;100.00
32109;BME280;18624;50.042;8.436;2023-01-28T05:47:28;101489.47;;;2.29;100.00
32109;BME280;18624;50.042;8.436;2023-01-28T05:50:01;101409.38;;;1.69;100.00
32109;BME280;18624;50.042;8.436;2023-01-28T05:53:06;101483.34;;;2.17;100.00
32109;BME280;18624;50.042;8.436;2023-01-28T05:55:35;101453.63;;;2.05;100.00
32109;BME280;18624;50.042;8.436;2023-01-28T05:58:02;101436.38;;;1.81;100.00
32109;BME280;18624;50.042;8.436;2023-01-28T06:00:30;101464.47;;;1.92;100.00
32109;BME280;18624;50.042;8.436;2023-01-28T06:02:58;101453.00;;;1.95;100.00
32109;BME280;18624;50.042;8.436;2023-01-28T06:05:25;101479.69;;;1.97;100.00
32109;BME280;18624;50.042;8.436;2023-01-28T06:07:52;101502.31;;;2.05;100.00
32109;BME280;18624;50.042;8.436;2023-01-28T06:10:19;101499.84;;;1.99;100.00
32109;BME280;18624;50.042;8.436;2023-01-28T06:12:46;101506.72;;;1.97;100.00
32109;BME280;18624;50.042;8.436;2023-01-28T06:15:25;101470.53;;;1.61;100.00
32109;BME280;18624;50.042;8.436;2023-01-28T06:18:01;101476.94;;;1.69;100.00
32109;BME280;18624;50.042;8.436;2023-01-28T06:20:31;101475.50;;;1.47;100.00
32109;BME280;18624;50.042;8.436;2023-01-28T06:22:59;101469.66;;;1.45;100.00
32109;BME280;18624;50.042;8.436;2023-01-28T06:25:26;101452.88;;;1.39;100.00
32109;BME280;18624;50.042;8.436;2023-01-28T06:27:53;101516.09;;;1.87;100.00
32109;BME280;18624;50.042;8.436;2023-01-28T06:30:20;101490.09;;;1.70;100.00
32109;BME280;18624;50.042;8.436;2023-01-28T06:32:53;101521.50;;;1.87;100.00
32109;BME280;18624;50.042;8.436;2023-01-28T06:35:19;101537.50;;;1.92;100.00
32109;BME280;18624;50.042;8.436;2023-01-28T06:37:47;101536.94;;;1.99;100.00
32109;BME280;18624;50.042;8.436;2023-01-28T06:40:14;101542.09;;;2.04;100.00
32109;BME280;18624;50.042;8.436;2023-01-28T06:42:42;101542.41;;;2.02;100.00
32109;BME280;18624;50.042;8.436;2023-01-28T06:45:10;101546.50;;;1.96;100.00
32109;BME280;18624;50.042;8.436;2023-01-28T06:47:39;101554.63;;;1.84;100.00
32109;BME280;18624;50.042;8.436;2023-01-28T06:50:07;101549.44;;;1.91;100.00
32109;BME280;18624;50.042;8.436;2023-01-28T06:52:34;101525.91;;;1.80;100.00
32109;BME280;18624;50.042;8.436;2023-01-28T06:55:00;101538.97;;;1.90;100.00
32109;BME280;18624;50.042;8.436;2023-01-28T06:57:27;101553.81;;;1.96;100.00
32109;BME280;18624;50.042;8.436;2023-01-28T06:59:53;101548.75;;;1.94;100.00
32109;BME280;18624;50.042;8.436;2023-01-28T07:02:20;101559.59;;;1.94;100.00
32109;BME280;18624;50.042;8.436;2023-01-28T07:04:46;101555.06;;;1.98;100.00
32109;BME280;18624;50.042;8.436;2023-01-28T07:07:13;101559.47;;;2.03;100.00
32109;BME280;18624;50.042;8.436;2023-01-28T07:09:39;101548.94;;;2.14;100.00
32109;BME280;18624;50.042;8.436;2023-01-28T07:12:06;101548.16;;;2.13;100.00
32109;BME280;18624;50.042;8.436;2023-01-28T07:14:32;101555.38;;;2.09;100.00
32109;BME280;18624;50.042;8.436;2023-01-28T07:16:59;101556.63;;;1.99;100.00
32109;BME280;18624;50.042;8.436;2023-01-28T07:19:25;101566.31;;;2.00;100.00
32109;BME280;18624;50.042;8.436;2023-01-28T07:21:52;101568.44;;;2.07;100.00
32109;BME280;18624;50.042;8.436;2023-01-28T07:24:18;101569.13;;;2.04;100.00
32109;BME280;18624;50.042;8.436;2023-01-28T07:26:46;101577.69;;;2.06;100.00
32109;BME280;18624;50.042;8.436;2023-01-28T07:29:13;101562.34;;;2.10;100.00
32109;BME280;18624;50.042;8.436;2023-01-28T07:31:39;101573.19;;;2.10;99.93
32109;BME280;18624;50.042;8.436;2023-01-28T07:34:05;101429.28;;;1.12;100.00
32109;BME280;18624;50.042;8.436;2023-01-28T07:36:32;101571.13;;;2.07;99.90
32109;BME280;18624;50.042;8.436;2023-01-28T07:38:58;101581.88;;;2.03;100.00
32109;BME280;18624;50.042;8.436;2023-01-28T07:41:25;101574.09;;;2.02;99.63
32109;BME280;18624;50.042;8.436;2023-01-28T07:43:53;101574.09;;;2.02;99.67
32109;BME280;18624;50.042;8.436;2023-01-28T07:46:19;101588.31;;;1.99;99.54
32109;BME280;18624;50.042;8.436;2023-01-28T07:48:46;101593.59;;;1.95;100.00
32109;BME280;18624;50.042;8.436;2023-01-28T07:51:13;101587.28;;;1.91;99.48
32109;BME280;18624;50.042;8.436;2023-01-28T07:53:39;101542.94;;;1.68;99.58
32109;BME280;18624;50.042;8.436;2023-01-28T07:56:06;101594.03;;;2.10;99.05
32109;BME280;18624;50.042;8.436;2023-01-28T07:58:33;101597.09;;;2.08;97.91
32109;BME280;18624;50.042;8.436;2023-01-28T08:01:00;101554.97;;;1.83;97.77
32109;BME280;18624;50.042;8.436;2023-01-28T08:03:27;101593.47;;;2.04;98.37
32109;BME280;18624;50.042;8.436;2023-01-28T08:05:55;101563.53;;;1.85;98.17
32109;BME280;18624;50.042;8.436;2023-01-28T08:08:23;101593.47;;;1.92;98.07
32109;BME280;18624;50.042;8.436;2023-01-28T08:10:49;101601.47;;;2.00;98.10
32109;BME280;18624;50.042;8.436;2023-01-28T08:13:17;101594.38;;;1.96;97.77
32109;BME280;18624;50.042;8.436;2023-01-28T08:15:44;101600.34;;;2.01;97.00
32109;BME280;18624;50.042;8.436;2023-01-28T08:18:13;101470.44;;;1.21;96.69
32109;BME280;18624;50.042;8.436;2023-01-28T08:20:40;101543.50;;;1.61;96.33
32109;BME280;18624;50.042;8.436;2023-01-28T08:23:18;101607.91;;;1.96;96.75
32109;BME280;18624;50.042;8.436;2023-01-28T08:25:45;101606.34;;;1.95;96.17
32109;BME280;18624;50.042;8.436;2023-01-28T08:28:12;101608.81;;;2.00;96.93
32109;BME280;18624;50.042;8.436;2023-01-28T08:30:40;101587.72;;;1.93;96.13
32109;BME280;18624;50.042;8.436;2023-01-28T08:33:10;101604.06;;;2.09;97.43
32109;BME280;18624;50.042;8.436;2023-01-28T08:35:37;101607.78;;;2.05;96.97
32109;BME280;18624;50.042;8.436;2023-01-28T08:38:04;101556.78;;;1.78;95.76
32109;BME280;18624;50.042;8.436;2023-01-28T08:40:31;101609.22;;;2.14;95.50
32109;BME280;18624;50.042;8.436;2023-01-28T08:42:58;101612.41;;;2.04;95.91
32109;BME280;18624;50.042;8.436;2023-01-28T08:45:26;101614.53;;;2.11;96.31
32109;BME280;18624;50.042;8.436;2023-01-28T08:47:58;101619.50;;;2.09;95.39
32109;BME280;18624;50.042;8.436;2023-01-28T08:50:28;101609.34;;;2.18;95.03
32109;BME280;18624;50.042;8.436;2023-01-28T08:52:57;101607.66;;;2.13;95.47
32109;BME280;18624;50.042;8.436;2023-01-28T08:55:24;101588.88;;;1.80;94.29
32109;BME280;18624;50.042;8.436;2023-01-28T08:57:51;101624.81;;;1.93;96.00
32109;BME280;18624;50.042;8.436;2023-01-28T09:00:19;101630.56;;;1.91;96.34
32109;BME280;18624;50.042;8.436;2023-01-28T09:02:46;101634.16;;;1.95;96.22
32109;BME280;18624;50.042;8.436;2023-01-28T09:05:13;101635.63;;;2.05;96.51
32109;BME280;18624;50.042;8.436;2023-01-28T09:07:40;101635.84;;;2.00;95.32
32109;BME280;18624;50.042;8.436;2023-01-28T09:10:08;101639.09;;;2.06;95.91
32109;BME280;18624;50.042;8.436;2023-01-28T09:12:35;101636.41;;;2.06;94.72
32109;BME280;18624;50.042;8.436;2023-01-28T09:15:02;101591.25;;;1.82;92.92
32109;BME280;18624;50.042;8.436;2023-01-28T09:17:28;101642.59;;;2.06;93.15
32109;BME280;18624;50.042;8.436;2023-01-28T09:19:55;101647.44;;;2.00;93.80
32109;BME280;18624;50.042;8.436;2023-01-28T09:22:21;101650.81;;;1.97;94.59
32109;BME280;18624;50.042;8.436;2023-01-28T09:24:48;101649.03;;;1.89;94.53
32109;BME280;18624;50.042;8.436;2023-01-28T09:27:15;101660.75;;;1.93;93.87
32109;BME280;18624;50.042;8.436;2023-01-28T09:29:42;101646.09;;;1.82;94.64
32109;BME280;18624;50.042;8.436;2023-01-28T09:32:08;101651.41;;;1.91;94.80
32109;BME280;18624;50.042;8.436;2023-01-28T09:34:35;101655.13;;;1.98;94.22
32109;BME280;18624;50.042;8.436;2023-01-28T09:37:01;101659.41;;;1.99;93.93
32109;BME280;18624;50.042;8.436;2023-01-28T09:39:28;101659.63;;;1.94;94.53
32109;BME280;18624;50.042;8.436;2023-01-28T09:44:51;101665.34;;;1.93;94.38
32109;BME280;18624;50.042;8.436;2023-01-28T09:47:26;101657.16;;;1.89;93.97
32109;BME280;18624;50.042;8.436;2023-01-28T09:49:57;101659.88;;;1.89;93.21
32109;BME280;18624;50.042;8.436;2023-01-28T09:52:25;101674.28;;;1.81;93.34
32109;BME280;18624;50.042;8.436;2023-01-28T09:55:03;101673.69;;;1.88;93.42
32109;BME280;18624;50.042;8.436;2023-01-28T09:57:36;101671.34;;;1.86;92.63
32109;BME280;18624;50.042;8.436;2023-01-28T10:00:12;101674.47;;;1.88;91.56
32109;BME280;18624;50.042;8.436;2023-01-28T10:08:21;101670.66;;;2.01;91.18
32109;BME280;18624;50.042;8.436;2023-01-28T10:11:09;101680.34;;;1.90;90.82
32109;BME280;18624;50.042;8.436;2023-01-28T10:13:50;101672.13;;;1.87;91.17
32109;BME280;18624;50.042;8.436;2023-01-28T10:16:43;101678.44;;;1.78;91.55
32109;BME280;18624;50.042;8.436;2023-01-28T10:19:16;101687.78;;;1.81;92.20
32109;BME280;18624;50.042;8.436;2023-01-28T10:21:49;101669.19;;;1.80;91.86
32109;BME280;18624;50.042;8.436;2023-01-28T10:24:35;101687.22;;;2.00;91.49
32109;BME280;18624;50.042;8.436;2023-01-28T10:27:15;101676.97;;;2.06;91.12
32109;BME280;18624;50.042;8.436;2023-01-28T10:29:42;101683.19;;;1.94;89.98
32109;BME280;18624;50.042;8.436;2023-01-28T10:32:31;101697.25;;;1.87;90.17
32109;BME280;18624;50.042;8.436;2023-01-28T10:35:01;101552.88;;;0.94;90.80
32109;BME280;18624;50.042;8.436;2023-01-28T10:37:33;101695.22;;;1.84;90.46
32109;BME280;18624;50.042;8.436;2023-01-28T10:40:01;101690.28;;;1.86;91.53
32109;BME280;18624;50.042;8.436;2023-01-28T10:42:34;101687.91;;;1.85;91.13
32109;BME280;18624;50.042;8.436;2023-01-28T10:45:22;101685.28;;;1.88;91.45
32109;BME280;18624;50.042;8.436;2023-01-28T10:47:54;101686.66;;;1.94;91.25
32109;BME280;18624;50.042;8.436;2023-01-28T10:50:26;101637.19;;;1.69;90.98
32109;BME280;18624;50.042;8.436;2023-01-28T10:52:57;101680.94;;;2.08;90.72
32109;BME280;18624;50.042;8.436;2023-01-28T10:55:29;101685.31;;;2.13;91.31
32109;BME280;18624;50.042;8.436;2023-01-28T10:57:57;101538.88;;;1.13;90.22
32109;BME280;18624;50.042;8.436;2023-01-28T11:00:33;101700.53;;;2.17;89.32
32109;BME280;18624;50.042;8.436;2023-01-28T11:03:01;101688.56;;;2.06;88.05
32109;BME280;18624;50.042;8.436;2023-01-28T11:05:29;101689.16;;;1.99;88.73
32109;BME280;18624;50.042;8.436;2023-01-28T11:08:13;101671.25;;;1.95;89.32
32109;BME280;18624;50.042;8.436;2023-01-28T11:10:41;101679.91;;;2.13;89.37
32109;BME280;18624;50.042;8.436;2023-01-28T11:13:17;101691.16;;;2.15;88.28
32109;BME280;18624;50.042;8.436;2023-01-28T11:16:01;101693.75;;;2.11;88.11
32109;BME280;18624;50.042;8.436;2023-01-28T11:18:30;101681.47;;;2.14;87.30
32109;BME280;18624;50.042;8.436;2023-01-28T11:21:04;101676.06;;;2.14;88.05
32109;BME280;18624;50.042;8.436;2023-01-28T11:23:33;101667.53;;;2.12;89.23
32109;BME280;18624;50.042;8.436;2023-01-28T11:26:23;101685.75;;;2.27;88.33
32109;BME280;18624;50.042;8.436;2023-01-28T11:28:52;101681.25;;;2.31;87.90
32109;BME280;18624;50.042;8.436;2023-01-28T11:31:21;101683.59;;;2.33;86.29
32109;BME280;18624;50.042;8.436;2023-01-28T11:33:51;101693.53;;;2.28;87.21
32109;BME280;18624;50.042;8.436;2023-01-28T11:36:27;101695.69;;;2.23;87.54
32109;BME280;18624;50.042;8.436;2023-01-28T11:38:56;101687.13;;;2.21;86.47
32109;BME280;18624;50.042;8.436;2023-01-28T11:41:35;101658.72;;;2.02;86.08
32109;BME280;18624;50.042;8.436;2023-01-28T11:44:23;101682.38;;;2.06;86.08
32109;BME280;18624;50.042;8.436;2023-01-28T11:50:04;101675.63;;;1.99;87.31
32109;BME280;18624;50.042;8.436;2023-01-28T11:52:54;101673.59;;;2.09;87.35
32109;BME280;18624;50.042;8.436;2023-01-28T11:55:54;101670.66;;;2.14;86.96
32109;BME280;18624;50.042;8.436;2023-01-28T11:58:48;101673.03;;;2.15;86.19
32109;BME280;18624;50.042;8.436;2023-01-28T12:01:45;101667.28;;;2.17;85.15
32109;BME280;18624;50.042;8.436;2023-01-28T12:04:32;101660.63;;;2.14;84.14
32109;BME280;18624;50.042;8.436;2023-01-28T12:09:54;101672.34;;;2.06;85.49
32109;BME280;18624;50.042;8.436;2023-01-28T12:20:05;101520.75;;;1.01;84.32
32109;BME280;18624;50.042;8.436;2023-01-28T12:22:52;101657.16;;;1.89;86.56
32109;BME280;18624;50.042;8.436;2023-01-28T12:28:28;101674.59;;;1.92;86.92
32109;BME280;18624;50.042;8.436;2023-01-28T12:31:24;101666.03;;;2.02;84.90
32109;BME280;18624;50.042;8.436;2023-01-28T12:34:10;101666.72;;;1.87;84.90
32109;BME280;18624;50.042;8.436;2023-01-28T12:37:09;101668.28;;;1.88;86.66
32109;BME280;18624;50.042;8.436;2023-01-28T12:42:40;101657.13;;;2.01;85.23
32109;BME280;18624;50.042;8.436;2023-01-28T12:45:29;101649.25;;;1.96;84.98
32109;BME280;18624;50.042;8.436;2023-01-28T12:48:07;101652.50;;;2.02;84.13
32109;BME280;18624;50.042;8.436;2023-01-28T12:50:40;101661.09;;;2.04;83.84
32109;BME280;18624;50.042;8.436;2023-01-28T12:55:57;101659.88;;;1.89;81.94
32109;BME280;18624;50.042;8.436;2023-01-28T12:58:36;101642.94;;;1.92;82.76
32109;BME280;18624;50.042;8.436;2023-01-28T13:01:09;101643.06;;;1.84;82.54
32109;BME280;18624;50.042;8.436;2023-01-28T13:03:48;101650.63;;;1.90;79.92
32109;BME280;18624;50.042;8.436;2023-01-28T13:06:23;101614.78;;;1.57;79.63
32109;BME280;18624;50.042;8.436;2023-01-28T13:08:59;101659.63;;;1.82;79.98
32109;BME280;18624;50.042;8.436;2023-01-28T13:11:32;101658.47;;;1.71;79.55
32109;BME280;18624;50.042;8.436;2023-01-28T13:14:01;101616.78;;;1.47;79.65
32109;BME280;18624;50.042;8.436;2023-01-28T13:16:28;101660.97;;;1.76;79.34
32109;BME280;18624;50.042;8.436;2023-01-28T13:19:10;101638.31;;;1.56;78.18
32109;BME280;18624;50.042;8.436;2023-01-28T13:21:47;101670.22;;;1.87;77.35
32109;BME280;18624;50.042;8.436;2023-01-28T13:26:44;101669.19;;;1.92;76.67
32109;BME280;18624;50.042;8.436;2023-01-28T13:31:42;101682.28;;;1.90;75.65
32109;BME280;18624;50.042;8.436;2023-01-28T13:34:29;101686.91;;;1.89;76.08
32109;BME280;18624;50.042;8.436;2023-01-28T13:37:01;101698.59;;;1.93;75.96
32109;BME280;18624;50.042;8.436;2023-01-28T13:39:31;101684.41;;;1.96;74.79
32109;BME280;18624;50.042;8.436;2023-01-28T13:42:22;101707.28;;;1.99;75.90
32109;BME280;18624;50.042;8.436;2023-01-28T13:44:49;101687.34;;;2.03;74.13
32109;BME280;18624;50.042;8.436;2023-01-28T13:47:32;101693.88;;;2.02;73.74
32109;BME280;18624;50.042;8.436;2023-01-28T13:50:05;101689.47;;;1.98;74.06
32109;BME280;18624;50.042;8.436;2023-01-28T13:52:36;101691.84;;;1.99;75.53
32109;BME280;18624;50.042;8.436;2023-01-28T14:06:34;101701.56;;;2.13;73.84
32109;BME280;18624;50.042;8.436;2023-01-28T14:09:26;101703.00;;;2.10;72.46
32109;BME280;18624;50.042;8.436;2023-01-28T14:12:20;101705.81;;;2.01;71.86
32109;BME280;18624;50.042;8.436;2023-01-28T14:17:56;101635.50;;;1.65;72.29
32109;BME280;18624;50.042;8.436;2023-01-28T14:21:12;101699.84;;;2.08;72.41
32109;BME280;18624;50.042;8.436;2023-01-28T14:23:23;101694.78;;;2.07;70.91
32109;BME280;18624;50.042;8.436;2023-01-28T14:31:24;101709.53;;;2.09;71.34
32109;BME280;18624;50.042;8.436;2023-01-28T14:33:52;101701.97;;;2.02;71.03
32109;BME280;18624;50.042;8.436;2023-01-28T14:36:19;101707.63;;;1.97;70.95
32109;BME280;18624;50.042;8.436;2023-01-28T14:38:46;101701.75;;;1.95;70.81